createdAt,value
2023-03-07T00:00:17.046Z,59.05
2023-03-07T00:02:44.294Z,54.63
2023-03-07T00:05:13.492Z,68.43
2023-03-07T00:07:40.587Z,75.10
2023-03-07T00:10:08.969Z,70.10
2023-03-07T00:12:36.143Z,77.28
2023-03-07T00:15:04.156Z,67.00
2023-03-07T00:17:31.443Z,74.97
2023-03-07T00:19:58.816Z,74.18
2023-03-07T00:22:25.994Z,76.72
2023-03-07T00:24:53.406Z,67.32
2023-03-07T00:27:20.527Z,69.80
2023-03-07T00:29:49.663Z,86.75
2023-03-07T00:32:17.087Z,70.35
2023-03-07T00:34:44.261Z,68.72
2023-03-07T00:37:11.376Z,71.57
2023-03-07T00:39:38.551Z,67.03
2023-03-07T00:42:05.878Z,66.07
2023-03-07T00:44:33.199Z,66.45
2023-03-07T00:47:00.366Z,61.15
2023-03-07T00:49:28.094Z,57.78
2023-03-07T00:51:55.341Z,55.90
2023-03-07T00:54:22.803Z,54.22
2023-03-07T00:56:50.039Z,48.10
2023-03-07T00:59:17.861Z,47.88
2023-03-07T01:01:45.252Z,50.60
2023-03-07T01:04:12.459Z,56.88
2023-03-07T01:06:39.547Z,63.47
2023-03-07T01:09:08.049Z,58.05
2023-03-07T01:11:36.703Z,58.38
2023-03-07T01:14:06.138Z,59.10
2023-03-07T01:16:37.706Z,57.70
2023-03-07T01:19:11.775Z,57.10
2023-03-07T01:21:42.080Z,51.65
2023-03-07T01:24:13.744Z,49.63
2023-03-07T01:26:41.807Z,56.13
2023-03-07T01:29:11.172Z,49.75
2023-03-07T01:31:38.348Z,52.13
2023-03-07T01:34:07.008Z,47.70
2023-03-07T01:36:36.977Z,48.00
2023-03-07T01:39:07.431Z,45.55
2023-03-07T01:41:38.107Z,60.80
2023-03-07T01:44:20.000Z,55.92
2023-03-07T01:46:59.927Z,54.20
2023-03-07T01:49:50.365Z,47.83
2023-03-07T01:52:33.834Z,58.72
2023-03-07T01:55:16.050Z,55.55
2023-03-07T01:57:48.851Z,58.30
2023-03-07T02:00:29.259Z,57.50
2023-03-07T02:03:19.229Z,57.88
2023-03-07T02:06:00.805Z,49.35
2023-03-07T02:08:31.101Z,62.47
2023-03-07T02:10:58.224Z,68.93
2023-03-07T02:13:25.714Z,62.08
2023-03-07T02:15:53.104Z,53.50
2023-03-07T02:18:26.400Z,52.00
2023-03-07T02:20:59.446Z,48.30
2023-03-07T02:23:45.923Z,56.78
2023-03-07T02:26:32.049Z,56.75
2023-03-07T02:29:00.872Z,55.53
2023-03-07T02:31:29.558Z,50.75
2023-03-07T02:33:56.723Z,47.08
2023-03-07T02:36:30.093Z,41.25
2023-03-07T02:39:12.616Z,46.70
2023-03-07T02:41:40.084Z,35.10
2023-03-07T02:44:15.569Z,41.72
2023-03-07T02:46:42.842Z,38.95
2023-03-07T02:49:10.079Z,46.97
2023-03-07T02:51:37.190Z,51.70
2023-03-07T02:54:04.693Z,52.40
2023-03-07T02:56:32.274Z,43.65
2023-03-07T02:58:59.502Z,52.20
2023-03-07T03:01:27.050Z,54.30
2023-03-07T03:03:55.418Z,55.10
2023-03-07T03:06:22.714Z,53.53
2023-03-07T03:08:50.014Z,45.40
2023-03-07T03:11:17.232Z,49.17
2023-03-07T03:13:45.400Z,41.88
2023-03-07T03:16:12.777Z,38.63
2023-03-07T03:18:40.036Z,31.17
2023-03-07T03:21:09.787Z,30.67
2023-03-07T03:23:38.201Z,26.38
2023-03-07T03:26:10.684Z,27.73
2023-03-07T03:28:39.467Z,33.05
2023-03-07T03:31:14.609Z,51.72
2023-03-07T03:33:46.262Z,52.33
2023-03-07T03:36:16.628Z,34.85
2023-03-07T03:38:46.482Z,33.72
2023-03-07T03:41:17.912Z,48.63
2023-03-07T03:43:47.537Z,36.47
2023-03-07T03:46:17.111Z,43.55
2023-03-07T03:48:49.998Z,53.28
2023-03-07T03:51:17.396Z,32.72
2023-03-07T03:53:44.867Z,44.13
2023-03-07T03:56:19.362Z,32.15
2023-03-07T03:58:50.990Z,48.17
2023-03-07T04:01:20.364Z,28.05
2023-03-07T04:03:50.329Z,29.50
2023-03-07T04:06:28.060Z,40.88
2023-03-07T04:08:57.020Z,39.20
2023-03-07T04:11:25.243Z,33.70
2023-03-07T04:13:52.841Z,29.50
2023-03-07T04:16:24.249Z,32.87
2023-03-07T04:18:52.234Z,30.40
2023-03-07T04:21:20.626Z,24.77
2023-03-07T04:23:49.872Z,31.75
2023-03-07T04:26:17.393Z,30.15
2023-03-07T04:28:44.771Z,31.30
2023-03-07T04:31:26.431Z,38.67
2023-03-07T04:33:57.000Z,31.85
2023-03-07T04:36:25.674Z,41.53
2023-03-07T04:38:53.010Z,33.05
2023-03-07T04:41:25.602Z,26.13
2023-03-07T04:44:03.425Z,26.52
2023-03-07T04:46:30.817Z,49.30
2023-03-07T04:48:58.300Z,56.40
2023-03-07T04:51:25.699Z,54.90
2023-03-07T04:53:52.988Z,58.35
2023-03-07T04:56:20.144Z,46.95
2023-03-07T04:58:48.230Z,40.28
2023-03-07T05:01:17.603Z,78.93
2023-03-07T05:03:45.233Z,95.00
2023-03-07T05:06:15.539Z,87.20
2023-03-07T05:08:46.957Z,92.78
2023-03-07T05:11:14.627Z,103.32
2023-03-07T05:13:42.448Z,79.80
2023-03-07T05:16:10.301Z,91.53
2023-03-07T05:18:37.757Z,115.82
2023-03-07T05:21:05.689Z,138.55
2023-03-07T05:23:33.363Z,106.32
2023-03-07T05:26:00.497Z,105.45
2023-03-07T05:28:27.724Z,77.30
2023-03-07T05:30:54.981Z,63.50
2023-03-07T05:33:22.749Z,79.28
2023-03-07T05:35:50.082Z,86.88
2023-03-07T05:38:18.335Z,84.78
2023-03-07T05:40:45.860Z,83.43
2023-03-07T05:43:14.347Z,95.07
2023-03-07T05:45:41.628Z,102.00
2023-03-07T05:48:08.854Z,98.93
2023-03-07T05:50:38.462Z,90.15
2023-03-07T05:53:05.870Z,83.00
2023-03-07T05:55:33.994Z,103.38
2023-03-07T05:58:01.194Z,130.38
2023-03-07T06:00:29.073Z,104.18
2023-03-07T06:03:04.163Z,96.20
2023-03-07T06:05:32.492Z,103.65
2023-03-07T06:08:00.276Z,90.70
2023-03-07T06:10:27.809Z,73.38
2023-03-07T06:12:55.692Z,85.97
2023-03-07T06:15:24.570Z,84.03
2023-03-07T06:17:58.203Z,91.22
2023-03-07T06:20:25.744Z,91.78
2023-03-07T06:22:55.286Z,72.03
2023-03-07T06:25:23.138Z,70.63
2023-03-07T06:27:50.285Z,91.47
2023-03-07T06:30:17.744Z,23.30
2023-03-07T06:32:45.634Z,76.28
2023-03-07T06:35:13.009Z,403.35
2023-03-07T06:37:40.521Z,255.13
2023-03-07T06:40:10.204Z,215.38
2023-03-07T06:42:39.241Z,208.75
2023-03-07T06:45:08.457Z,154.80
2023-03-07T06:47:35.920Z,74.05
2023-03-07T06:50:05.242Z,109.67
2023-03-07T06:52:33.925Z,102.57
2023-03-07T06:55:01.346Z,45.90
2023-03-07T06:57:30.315Z,32.97
2023-03-07T06:59:57.540Z,57.15
2023-03-07T07:02:25.320Z,83.75
2023-03-07T07:04:52.754Z,71.57
2023-03-07T07:07:20.695Z,76.82
2023-03-07T07:09:47.864Z,73.25
2023-03-07T07:12:15.218Z,73.35
2023-03-07T07:14:42.522Z,70.00
2023-03-07T07:17:10.024Z,81.57
2023-03-07T07:19:37.336Z,66.68
2023-03-07T07:22:08.061Z,81.72
2023-03-07T07:24:35.416Z,78.50
2023-03-07T07:27:02.888Z,82.70
2023-03-07T07:29:30.187Z,91.35
2023-03-07T07:31:57.615Z,140.57
2023-03-07T07:34:25.255Z,98.10
2023-03-07T07:36:52.780Z,92.25
2023-03-07T07:39:21.220Z,85.85
2023-03-07T07:41:48.396Z,90.93
2023-03-07T07:44:17.024Z,65.73
2023-03-07T07:46:53.354Z,57.03
2023-03-07T07:49:20.683Z,74.15
2023-03-07T07:51:47.907Z,83.75
2023-03-07T07:54:15.137Z,65.78
2023-03-07T07:56:42.937Z,85.75
2023-03-07T07:59:10.215Z,60.28
2023-03-07T08:01:37.976Z,58.60
2023-03-07T08:04:05.527Z,44.45
2023-03-07T08:06:32.796Z,67.47
2023-03-07T08:09:00.480Z,58.65
2023-03-07T08:11:27.932Z,62.30
2023-03-07T08:13:55.391Z,64.65
2023-03-07T08:16:23.700Z,73.50
2023-03-07T08:18:56.599Z,85.15
2023-03-07T08:21:25.521Z,63.50
2023-03-07T08:23:56.479Z,55.22
2023-03-07T08:26:23.906Z,66.30
2023-03-07T08:28:51.206Z,61.88
2023-03-07T08:31:25.400Z,50.58
2023-03-07T08:33:53.125Z,47.65
2023-03-07T08:36:20.682Z,45.55
2023-03-07T08:38:52.951Z,56.22
2023-03-07T08:41:22.429Z,33.17
2023-03-07T08:43:49.815Z,25.45
2023-03-07T08:46:17.040Z,25.05
2023-03-07T08:48:44.455Z,22.05
2023-03-07T08:51:15.512Z,40.55
2023-03-07T08:53:44.415Z,64.00
2023-03-07T08:56:17.660Z,77.28
2023-03-07T08:58:45.219Z,36.75
2023-03-07T09:01:12.692Z,27.58
2023-03-07T09:03:40.076Z,36.08
2023-03-07T09:06:07.746Z,20.85
2023-03-07T09:08:34.931Z,16.85
2023-03-07T09:11:04.794Z,22.88
2023-03-07T09:13:35.910Z,11.05
2023-03-07T09:16:07.263Z,17.05
2023-03-07T09:18:35.690Z,26.50
2023-03-07T09:21:05.112Z,24.70
2023-03-07T09:23:33.431Z,17.17
2023-03-07T09:26:05.185Z,10.27
2023-03-07T09:28:32.452Z,9.40
2023-03-07T09:31:05.557Z,14.00
2023-03-07T09:33:33.191Z,16.70
2023-03-07T09:36:04.051Z,9.38
2023-03-07T09:38:31.265Z,10.23
2023-03-07T09:41:16.736Z,8.48
2023-03-07T09:44:13.538Z,10.32
2023-03-07T09:47:12.503Z,8.38
2023-03-07T09:49:50.489Z,14.05
2023-03-07T09:52:26.893Z,9.95
2023-03-07T09:55:16.906Z,9.77
2023-03-07T09:58:12.133Z,26.90
2023-03-07T10:00:42.458Z,9.52
2023-03-07T10:04:01.415Z,14.10
2023-03-07T10:06:41.247Z,29.23
2023-03-07T10:09:21.410Z,12.45
2023-03-07T10:12:27.896Z,22.88
2023-03-07T10:15:24.774Z,6.07
2023-03-07T10:18:34.398Z,8.98
2023-03-07T10:21:35.229Z,17.45
2023-03-07T10:24:52.845Z,8.68
2023-03-07T10:27:25.870Z,4.00
2023-03-07T10:29:56.234Z,13.38
2023-03-07T10:32:37.351Z,5.22
2023-03-07T10:35:21.240Z,4.50
2023-03-07T10:38:27.914Z,5.03
2023-03-07T10:41:03.358Z,12.90
2023-03-07T10:43:33.866Z,8.43
2023-03-07T10:46:23.579Z,8.38
2023-03-07T10:48:55.724Z,11.73
2023-03-07T10:51:59.890Z,13.00
2023-03-07T10:54:35.242Z,4.03
2023-03-07T10:57:15.817Z,13.02
2023-03-07T10:59:49.519Z,10.43
2023-03-07T11:02:46.304Z,4.43
2023-03-07T11:05:32.968Z,2.70
2023-03-07T11:08:19.438Z,6.43
2023-03-07T11:10:46.771Z,4.05
2023-03-07T11:13:19.947Z,7.65
2023-03-07T11:15:48.360Z,12.80
2023-03-07T11:18:37.226Z,5.40
2023-03-07T11:21:04.692Z,6.43
2023-03-07T11:23:32.204Z,8.82
2023-03-07T11:26:21.305Z,9.18
2023-03-07T11:31:57.827Z,5.93
2023-03-07T11:34:44.087Z,7.43
2023-03-07T11:37:40.361Z,5.50
2023-03-07T11:40:31.010Z,7.15
2023-03-07T11:43:21.646Z,7.80
2023-03-07T11:46:29.842Z,3.85
2023-03-07T11:49:06.270Z,6.68
2023-03-07T11:52:04.023Z,2.67
2023-03-07T11:55:01.106Z,5.05
2023-03-07T11:58:03.852Z,14.15
2023-03-07T12:00:45.953Z,6.03
2023-03-07T12:03:42.284Z,5.60
2023-03-07T12:06:49.362Z,3.72
2023-03-07T12:09:31.307Z,6.75
2023-03-07T12:12:29.522Z,8.18
2023-03-07T12:15:15.682Z,4.03
2023-03-07T12:18:36.581Z,6.13
2023-03-07T12:21:13.501Z,3.00
2023-03-07T12:24:17.241Z,3.60
2023-03-07T12:27:26.252Z,2.58
2023-03-07T12:30:02.381Z,6.53
2023-03-07T12:32:33.635Z,3.15
2023-03-07T12:35:08.075Z,6.43
2023-03-07T12:38:21.335Z,13.13
2023-03-07T12:40:58.602Z,11.18
2023-03-07T12:43:46.801Z,4.63
2023-03-07T12:46:24.614Z,3.53
2023-03-07T12:48:59.441Z,3.03
2023-03-07T12:51:35.319Z,3.20
2023-03-07T12:54:40.068Z,3.95
2023-03-07T12:57:20.213Z,7.82
2023-03-07T12:59:50.153Z,9.07
2023-03-07T13:02:28.830Z,6.10
2023-03-07T13:04:58.336Z,33.05
2023-03-07T13:07:29.242Z,17.50
2023-03-07T13:09:59.338Z,6.88
2023-03-07T13:12:35.086Z,19.33
2023-03-07T13:15:26.808Z,5.60
2023-03-07T13:17:55.219Z,7.28
2023-03-07T13:20:28.346Z,16.13
2023-03-07T13:22:59.341Z,38.60
2023-03-07T13:25:27.512Z,16.58
2023-03-07T13:28:00.653Z,9.35
2023-03-07T13:30:33.350Z,9.65
2023-03-07T13:33:25.693Z,9.57
2023-03-07T13:35:59.358Z,11.93
2023-03-07T13:38:46.040Z,4.28
2023-03-07T13:41:33.606Z,9.57
2023-03-07T13:44:02.459Z,14.65
2023-03-07T13:46:46.682Z,6.70
2023-03-07T13:49:33.955Z,5.10
2023-03-07T13:52:34.497Z,10.40
2023-03-07T13:55:19.940Z,17.92
2023-03-07T13:57:47.864Z,13.98
2023-03-07T14:00:41.215Z,7.75
2023-03-07T14:03:36.660Z,3.40
2023-03-07T14:06:19.092Z,10.80
2023-03-07T14:08:48.850Z,5.93
2023-03-07T14:11:39.656Z,8.73
2023-03-07T14:14:46.830Z,10.43
2023-03-07T14:17:19.913Z,10.75
2023-03-07T14:20:10.892Z,16.83
2023-03-07T14:23:34.326Z,13.55
2023-03-07T14:26:21.366Z,17.17
2023-03-07T14:29:00.309Z,12.35
2023-03-07T14:31:36.516Z,9.13
2023-03-07T14:34:34.002Z,8.85
2023-03-07T14:37:07.223Z,35.05
2023-03-07T14:39:48.968Z,18.33
2023-03-07T14:42:22.815Z,10.40
2023-03-07T14:45:26.758Z,15.18
2023-03-07T14:48:11.733Z,20.50
2023-03-07T14:50:46.472Z,16.98
2023-03-07T14:53:27.665Z,16.55
2023-03-07T14:55:56.044Z,5.35
2023-03-07T14:58:28.240Z,5.40
2023-03-07T15:01:04.310Z,7.63
2023-03-07T15:03:32.322Z,4.10
2023-03-07T15:06:02.258Z,13.90
2023-03-07T15:08:34.577Z,6.22
2023-03-07T15:11:24.703Z,10.18
2023-03-07T15:13:57.554Z,5.63
2023-03-07T15:16:35.223Z,4.00
2023-03-07T15:19:31.470Z,3.97
2023-03-07T15:22:02.278Z,9.82
2023-03-07T15:24:36.614Z,15.98
2023-03-07T15:27:07.537Z,15.77
2023-03-07T15:29:34.688Z,9.15
2023-03-07T15:32:26.822Z,12.30
2023-03-07T15:35:07.303Z,10.60
2023-03-07T15:37:50.409Z,17.13
2023-03-07T15:40:21.784Z,17.80
2023-03-07T15:42:58.782Z,23.13
2023-03-07T15:45:59.208Z,10.88
2023-03-07T15:48:38.527Z,16.20
2023-03-07T15:51:16.218Z,10.48
2023-03-07T15:53:46.736Z,10.73
2023-03-07T15:56:26.255Z,19.88
2023-03-07T15:59:03.322Z,11.82
2023-03-07T16:01:30.709Z,11.30
2023-03-07T16:04:05.878Z,6.35
2023-03-07T16:06:41.152Z,7.70
2023-03-07T16:09:17.388Z,13.52
2023-03-07T16:11:45.985Z,6.88
2023-03-07T16:14:25.850Z,12.07
2023-03-07T16:17:00.936Z,17.15
2023-03-07T16:19:29.240Z,14.45
2023-03-07T16:21:56.896Z,19.60
2023-03-07T16:24:24.335Z,41.05
2023-03-07T16:26:51.720Z,24.00
2023-03-07T16:29:22.437Z,16.73
2023-03-07T16:31:50.040Z,24.27
2023-03-07T16:34:20.623Z,22.60
2023-03-07T16:36:47.996Z,16.48
2023-03-07T16:39:17.489Z,21.17
2023-03-07T16:41:48.737Z,18.17
2023-03-07T16:44:18.650Z,12.27
2023-03-07T16:47:01.036Z,17.67
2023-03-07T16:49:28.337Z,31.15
2023-03-07T16:52:04.984Z,29.35
2023-03-07T16:54:33.832Z,30.48
2023-03-07T16:57:01.929Z,47.72
2023-03-07T16:59:36.544Z,52.92
2023-03-07T17:02:17.231Z,56.15
2023-03-07T17:04:46.288Z,49.72
2023-03-07T17:07:23.216Z,42.33
2023-03-07T17:09:50.457Z,44.28
2023-03-07T17:12:24.516Z,43.05
2023-03-07T17:14:51.997Z,46.55
2023-03-07T17:17:35.945Z,59.58
2023-03-07T17:20:05.627Z,36.88
2023-03-07T17:22:33.143Z,41.00
2023-03-07T17:25:01.104Z,42.60
2023-03-07T17:27:28.346Z,44.53
2023-03-07T17:29:55.639Z,40.55
2023-03-07T17:32:22.912Z,34.78
2023-03-07T17:34:50.251Z,28.58
2023-03-07T17:37:17.590Z,29.98
2023-03-07T17:39:45.081Z,26.60
2023-03-07T17:42:12.342Z,26.25
2023-03-07T17:44:39.684Z,11.45
2023-03-07T17:47:07.243Z,15.10
2023-03-07T17:49:37.500Z,25.20
2023-03-07T17:52:06.962Z,17.52
2023-03-07T17:54:34.386Z,21.33
2023-03-07T17:57:02.736Z,20.80
2023-03-07T17:59:32.119Z,20.58
2023-03-07T18:01:59.527Z,13.73
2023-03-07T18:04:30.439Z,12.60
2023-03-07T18:06:59.587Z,10.35
2023-03-07T18:09:26.805Z,9.13
2023-03-07T18:11:54.176Z,12.95
2023-03-07T18:14:21.727Z,11.07
2023-03-07T18:16:49.083Z,12.40
2023-03-07T18:19:25.740Z,10.77
2023-03-07T18:21:54.887Z,11.43
2023-03-07T18:24:29.307Z,11.57
2023-03-07T18:27:01.766Z,36.55
2023-03-07T18:29:29.419Z,47.45
2023-03-07T18:31:56.780Z,44.42
2023-03-07T18:34:24.402Z,57.03
2023-03-07T18:36:53.666Z,44.03
2023-03-07T18:39:23.702Z,40.05
2023-03-07T18:41:51.324Z,40.78
2023-03-07T18:44:19.190Z,34.00
2023-03-07T18:46:46.967Z,24.85
2023-03-07T18:49:15.544Z,24.48
2023-03-07T18:51:45.195Z,23.83
2023-03-07T18:54:13.447Z,28.55
2023-03-07T18:56:42.123Z,28.08
2023-03-07T18:59:09.697Z,60.53
2023-03-07T19:01:38.925Z,59.30
2023-03-07T19:04:07.625Z,60.92
2023-03-07T19:06:42.130Z,67.20
2023-03-07T19:09:15.529Z,65.22
2023-03-07T19:11:43.101Z,63.10
2023-03-07T19:14:10.672Z,76.97
2023-03-07T19:16:38.468Z,142.55
2023-03-07T19:19:05.856Z,142.00
2023-03-07T19:21:32.992Z,124.03
2023-03-07T19:24:03.476Z,138.73
2023-03-07T19:26:30.849Z,123.55
2023-03-07T19:28:58.113Z,121.93
2023-03-07T19:31:27.499Z,128.30
2023-03-07T19:36:27.297Z,158.05
2023-03-07T19:38:58.383Z,90.35
2023-03-07T19:41:28.957Z,87.63
2023-03-07T19:43:59.024Z,75.57
2023-03-07T19:46:27.180Z,91.32
2023-03-07T19:48:54.877Z,102.68
2023-03-07T19:51:25.642Z,94.65
2023-03-07T19:53:56.936Z,107.32
2023-03-07T19:56:31.333Z,95.38
2023-03-07T19:59:01.243Z,82.47
2023-03-07T20:01:29.943Z,80.95
2023-03-07T20:03:57.788Z,75.80
2023-03-07T20:06:29.064Z,52.28
2023-03-07T20:08:58.511Z,55.08
2023-03-07T20:13:58.978Z,29.75
2023-03-07T20:16:28.704Z,28.05
2023-03-07T20:18:59.790Z,33.40
2023-03-07T20:21:28.723Z,23.40
2023-03-07T20:24:00.365Z,25.55
2023-03-07T20:26:34.582Z,34.35
2023-03-07T20:29:05.298Z,30.92
2023-03-07T20:31:33.833Z,33.55
2023-03-07T20:34:01.718Z,24.58
2023-03-07T20:36:32.757Z,33.95
2023-03-07T20:39:03.658Z,28.60
2023-03-07T20:41:33.213Z,26.65
2023-03-07T20:44:04.487Z,32.03
2023-03-07T20:46:32.937Z,40.30
2023-03-07T20:49:01.619Z,41.67
2023-03-07T20:51:32.504Z,52.88
2023-03-07T20:54:07.345Z,67.07
2023-03-07T20:56:37.433Z,70.05
2023-03-07T20:59:05.499Z,62.72
2023-03-07T21:01:34.909Z,56.85
2023-03-07T21:04:11.692Z,69.00
2023-03-07T21:06:42.674Z,75.05
2023-03-07T21:09:12.675Z,68.18
2023-03-07T21:11:44.579Z,75.20
2023-03-07T21:14:13.816Z,73.88
2023-03-07T21:16:42.462Z,69.60
2023-03-07T21:19:10.997Z,50.53
2023-03-07T21:21:38.740Z,29.83
2023-03-07T21:24:06.851Z,27.30
2023-03-07T21:26:35.936Z,27.33
2023-03-07T21:29:04.772Z,21.08
2023-03-07T21:31:35.178Z,29.80
2023-03-07T21:34:10.720Z,31.30
2023-03-07T21:36:38.004Z,39.45
2023-03-07T21:39:07.368Z,47.25
2023-03-07T21:44:02.156Z,35.22
2023-03-07T21:46:29.577Z,36.38
2023-03-07T21:48:59.043Z,31.95
2023-03-07T21:53:53.861Z,28.83
2023-03-07T21:56:23.845Z,39.22
2023-03-07T21:58:52.008Z,41.70
2023-03-07T22:01:26.561Z,39.22
2023-03-07T22:03:56.501Z,31.15
2023-03-07T22:06:25.061Z,30.92
2023-03-07T22:08:52.771Z,23.60
2023-03-07T22:11:20.240Z,25.33
2023-03-07T22:13:47.776Z,25.67
2023-03-07T22:16:20.502Z,25.38
2023-03-07T22:18:56.117Z,31.48
2023-03-07T22:21:25.594Z,24.90
2023-03-07T22:26:29.804Z,31.65
2023-03-07T22:28:58.034Z,24.30
2023-03-07T22:31:26.387Z,23.48
2023-03-07T22:33:53.800Z,31.00
2023-03-07T22:36:21.699Z,25.38
2023-03-07T22:38:55.648Z,32.50
2023-03-07T22:41:24.055Z,33.80
2023-03-07T22:43:52.005Z,35.90
2023-03-07T22:46:19.456Z,28.50
2023-03-07T22:48:46.713Z,35.42
2023-03-07T22:51:17.279Z,45.70
2023-03-07T22:53:44.921Z,48.08
2023-03-07T22:56:21.838Z,37.15
2023-03-07T22:58:49.302Z,44.85
2023-03-07T23:01:22.976Z,39.85
2023-03-07T23:03:51.506Z,44.08
2023-03-07T23:06:19.952Z,65.37
2023-03-07T23:08:50.623Z,63.65
2023-03-07T23:11:20.028Z,70.25
2023-03-07T23:13:47.432Z,68.63
2023-03-07T23:16:18.451Z,83.53
2023-03-07T23:18:50.048Z,82.38
2023-03-07T23:21:21.468Z,71.75
2023-03-07T23:23:51.607Z,80.10
2023-03-07T23:26:25.870Z,72.47
2023-03-07T23:28:53.744Z,74.97
2023-03-07T23:31:28.925Z,81.15
2023-03-07T23:33:58.924Z,73.85
2023-03-07T23:36:29.050Z,73.25
2023-03-07T23:38:57.901Z,100.65
2023-03-07T23:41:26.454Z,103.72
2023-03-07T23:43:58.997Z,87.90
2023-03-07T23:46:27.359Z,89.88
2023-03-07T23:48:55.752Z,77.53
2023-03-07T23:51:23.624Z,96.93
2023-03-07T23:53:50.979Z,101.60
2023-03-07T23:56:18.402Z,113.43
2023-03-07T23:58:52.072Z,105.97
